createdAt,value
2017-08-31T00:00:18.988Z,60.12
2017-08-31T00:00:59.437Z,59.83
2017-08-31T00:01:39.902Z,60.12
2017-08-31T00:02:20.356Z,60.31
2017-08-31T00:03:00.814Z,60.41
2017-08-31T00:03:41.263Z,59.92
2017-08-31T00:04:21.707Z,60.41
2017-08-31T00:05:02.160Z,60.22
2017-08-31T00:05:42.606Z,60.12
2017-08-31T00:06:23.096Z,60.41
2017-08-31T00:07:03.521Z,60.02
2017-08-31T00:07:43.973Z,60.31
2017-08-31T00:08:24.453Z,60.22
2017-08-31T00:09:04.910Z,60.31
2017-08-31T00:09:45.362Z,60.31
2017-08-31T00:10:25.815Z,60.02
2017-08-31T00:11:06.278Z,60.31
2017-08-31T00:11:46.734Z,60.31
2017-08-31T00:12:27.178Z,60.02
2017-08-31T00:13:07.639Z,60.22
2017-08-31T00:13:48.090Z,60.22
2017-08-31T00:14:28.556Z,60.12
2017-08-31T00:15:09.001Z,60.31
2017-08-31T00:15:49.448Z,60.22
2017-08-31T00:16:29.893Z,60.12
2017-08-31T00:17:10.348Z,60.12
2017-08-31T00:17:50.801Z,59.64
2017-08-31T00:18:31.265Z,60.22
2017-08-31T00:19:11.720Z,60.31
2017-08-31T00:19:52.187Z,60.22
2017-08-31T00:20:32.639Z,60.41
2017-08-31T00:21:13.095Z,60.41
2017-08-31T00:21:53.549Z,60.22
2017-08-31T00:22:34.034Z,60.22
2017-08-31T00:23:14.498Z,60.41
2017-08-31T00:23:54.949Z,60.41
2017-08-31T00:24:35.407Z,60.22
2017-08-31T00:25:15.871Z,60.41
2017-08-31T00:25:56.340Z,60.38
2017-08-31T00:26:36.801Z,60.41
2017-08-31T00:27:17.264Z,60.41
2017-08-31T00:27:57.718Z,60.31
2017-08-31T00:28:38.171Z,60.12
2017-08-31T00:29:18.626Z,60.41
2017-08-31T00:29:59.078Z,60.12
2017-08-31T00:30:39.523Z,60.31
2017-08-31T00:31:19.976Z,60.22
2017-08-31T00:32:00.447Z,60.22
2017-08-31T00:32:40.899Z,60.22
2017-08-31T00:33:21.434Z,60.22
2017-08-31T00:34:01.887Z,60.41
2017-08-31T00:34:42.342Z,60.02
2017-08-31T00:35:22.794Z,60.02
2017-08-31T00:36:03.252Z,59.54
2017-08-31T00:36:43.710Z,60.02
2017-08-31T00:37:24.313Z,60.02
2017-08-31T00:38:04.767Z,60
2017-08-31T00:38:45.223Z,60
2017-08-31T00:39:25.666Z,60.12
2017-08-31T00:40:06.127Z,60.02
2017-08-31T00:40:46.599Z,59.92
2017-08-31T00:41:27.100Z,60
2017-08-31T00:42:07.562Z,60
2017-08-31T00:42:48.013Z,59.92
2017-08-31T00:43:28.593Z,60.12
2017-08-31T00:44:09.032Z,60
2017-08-31T00:44:49.482Z,60.02
2017-08-31T00:45:29.940Z,60.02
2017-08-31T00:46:10.395Z,60.09
2017-08-31T00:46:50.849Z,59.8
2017-08-31T00:47:31.388Z,59.92
2017-08-31T00:48:11.849Z,60.02
2017-08-31T00:48:52.306Z,59.92
2017-08-31T00:49:32.765Z,60
2017-08-31T00:50:13.224Z,60.02
2017-08-31T00:50:53.689Z,59.92
2017-08-31T00:51:34.140Z,60
2017-08-31T00:52:14.595Z,59.64
2017-08-31T00:52:55.050Z,60
2017-08-31T00:53:35.508Z,59.92
2017-08-31T00:54:15.962Z,60.09
2017-08-31T00:54:56.415Z,60
2017-08-31T00:55:36.860Z,59.9
2017-08-31T00:56:17.317Z,60
2017-08-31T00:56:57.775Z,60.22
2017-08-31T00:57:38.233Z,59.8
2017-08-31T00:58:18.685Z,60.12
2017-08-31T00:58:59.141Z,59.7
2017-08-31T00:59:39.611Z,59.61
2017-08-31T01:00:20.051Z,59.8
2017-08-31T01:01:00.512Z,60.09
2017-08-31T01:01:40.967Z,60
2017-08-31T01:02:21.416Z,60.09
2017-08-31T01:03:01.869Z,60.09
2017-08-31T01:03:42.335Z,59.83
2017-08-31T01:04:22.784Z,59.7
2017-08-31T01:05:03.242Z,59.9
2017-08-31T01:05:43.701Z,59.9
2017-08-31T01:06:24.163Z,60.19
2017-08-31T01:07:04.620Z,59.92
2017-08-31T01:07:45.080Z,60.19
2017-08-31T01:08:25.534Z,59.7
2017-08-31T01:09:05.997Z,60.12
2017-08-31T01:09:46.461Z,59.92
2017-08-31T01:10:26.891Z,59.9
2017-08-31T01:11:07.349Z,59.8
2017-08-31T01:11:47.802Z,60.28
2017-08-31T01:12:28.256Z,60.19
2017-08-31T01:13:08.718Z,60.28
2017-08-31T01:13:49.169Z,60.19
2017-08-31T01:14:29.625Z,59.9
2017-08-31T01:15:10.080Z,60.19
2017-08-31T01:15:50.533Z,59.9
2017-08-31T01:16:30.978Z,59.92
2017-08-31T01:17:11.434Z,60.22
2017-08-31T01:17:51.892Z,60.12
2017-08-31T01:18:32.345Z,59.92
2017-08-31T01:19:12.796Z,60
2017-08-31T01:19:53.259Z,59.9
2017-08-31T01:20:33.712Z,60.09
2017-08-31T01:21:14.155Z,60.19
2017-08-31T01:21:54.621Z,59.9
2017-08-31T01:22:35.054Z,59.9
2017-08-31T01:23:15.506Z,60.09
2017-08-31T01:23:55.965Z,59.9
2017-08-31T01:24:36.419Z,60.19
2017-08-31T01:25:16.878Z,59.9
2017-08-31T01:25:57.337Z,60.09
2017-08-31T01:26:37.798Z,60
2017-08-31T01:27:18.257Z,60
2017-08-31T01:27:58.715Z,59.9
2017-08-31T01:28:39.166Z,60.28
2017-08-31T01:29:19.624Z,59.8
2017-08-31T01:30:00.081Z,59.8
2017-08-31T01:30:40.538Z,60
2017-08-31T01:31:20.988Z,60
2017-08-31T01:32:01.441Z,60
2017-08-31T01:32:41.896Z,60.09
2017-08-31T01:33:22.352Z,59.9
2017-08-31T01:34:02.801Z,60.09
2017-08-31T01:34:43.258Z,59.9
2017-08-31T01:35:23.715Z,59.8
2017-08-31T01:36:04.169Z,60.28
2017-08-31T01:36:44.648Z,60.09
2017-08-31T01:37:25.081Z,60.09
2017-08-31T01:38:05.538Z,60.09
2017-08-31T01:38:45.996Z,60.09
2017-08-31T01:39:26.436Z,60.19
2017-08-31T01:40:06.892Z,59.9
2017-08-31T01:40:47.352Z,60
2017-08-31T01:41:27.810Z,59.9
2017-08-31T01:42:08.263Z,59.8
2017-08-31T01:42:48.715Z,59.8
2017-08-31T01:43:29.168Z,60
2017-08-31T01:44:09.620Z,60.09
2017-08-31T01:44:50.075Z,60
2017-08-31T01:45:30.526Z,60.09
2017-08-31T01:46:10.985Z,60.09
2017-08-31T01:46:51.445Z,60
2017-08-31T01:47:31.897Z,60
2017-08-31T01:48:12.362Z,60
2017-08-31T01:48:52.807Z,60.19
2017-08-31T01:49:33.269Z,60.09
2017-08-31T01:50:13.721Z,60.19
2017-08-31T01:50:54.181Z,60.09
2017-08-31T01:51:34.654Z,60.28
2017-08-31T01:52:15.083Z,60
2017-08-31T01:52:55.547Z,60.09
2017-08-31T01:53:36.004Z,60
2017-08-31T01:54:16.458Z,60
2017-08-31T01:54:56.919Z,60
2017-08-31T01:55:37.377Z,60.28
2017-08-31T01:56:17.837Z,60.19
2017-08-31T01:56:58.290Z,59.8
2017-08-31T01:57:38.749Z,60.28
2017-08-31T01:58:19.209Z,60.09
2017-08-31T01:58:59.666Z,60
2017-08-31T01:59:40.124Z,60.28
2017-08-31T02:00:20.568Z,60.28
2017-08-31T02:01:01.025Z,60.19
2017-08-31T02:01:41.481Z,60.19
2017-08-31T02:02:21.930Z,60.28
2017-08-31T02:03:02.379Z,60.19
2017-08-31T02:03:42.836Z,60.09
2017-08-31T02:04:23.297Z,60.28
2017-08-31T02:05:03.747Z,60.28
2017-08-31T02:05:44.204Z,60.09
2017-08-31T02:06:24.659Z,60
2017-08-31T02:07:05.116Z,60.09
2017-08-31T02:07:45.577Z,60.48
2017-08-31T02:08:26.031Z,60.58
2017-08-31T02:09:06.490Z,59.9
2017-08-31T02:09:46.940Z,59.9
2017-08-31T02:10:27.412Z,60
2017-08-31T02:11:07.864Z,60
2017-08-31T02:11:48.306Z,60
2017-08-31T02:12:28.808Z,60.58
2017-08-31T02:13:09.269Z,60.68
2017-08-31T02:13:49.722Z,60.09
2017-08-31T02:14:30.178Z,60.58
2017-08-31T02:15:10.655Z,61.07
2017-08-31T02:15:51.107Z,60.09
2017-08-31T02:16:31.567Z,61.07
2017-08-31T02:17:12.022Z,60.58
2017-08-31T02:17:52.478Z,60.48
2017-08-31T02:18:32.940Z,60
2017-08-31T02:19:13.404Z,60
2017-08-31T02:19:53.860Z,60
2017-08-31T02:20:34.311Z,60.58
2017-08-31T02:21:14.765Z,60
2017-08-31T02:21:55.235Z,60.09
2017-08-31T02:22:35.692Z,60.97
2017-08-31T02:23:16.163Z,60.58
2017-08-31T02:23:56.592Z,60.19
2017-08-31T02:24:37.041Z,60.68
2017-08-31T02:25:17.497Z,60.68
2017-08-31T02:25:57.963Z,60.68
2017-08-31T02:26:38.413Z,59.8
2017-08-31T02:27:18.865Z,60.58
2017-08-31T02:27:59.311Z,59.8
2017-08-31T02:28:39.758Z,59.8
2017-08-31T02:29:20.237Z,59.9
2017-08-31T02:30:00.675Z,59.9
2017-08-31T02:30:41.180Z,60.09
2017-08-31T02:32:54.013Z,60
2017-08-31T02:33:34.459Z,59.8
2017-08-31T02:34:14.915Z,59.9
2017-08-31T02:34:55.412Z,59.9
2017-08-31T02:35:35.864Z,60.48
2017-08-31T02:36:16.307Z,59.7
2017-08-31T02:36:56.778Z,59.8
2017-08-31T02:37:37.205Z,59.9
2017-08-31T02:38:17.655Z,59.61
2017-08-31T02:38:58.129Z,60.28
2017-08-31T02:39:38.561Z,59.8
2017-08-31T02:40:19.018Z,59.8
2017-08-31T02:40:59.471Z,59.8
2017-08-31T02:41:39.927Z,59.9
2017-08-31T02:42:20.388Z,60.19
2017-08-31T02:43:00.851Z,59.9
2017-08-31T02:43:41.288Z,59.9
2017-08-31T02:44:21.740Z,59.9
2017-08-31T02:45:02.197Z,60.28
2017-08-31T02:45:42.653Z,59.9
2017-08-31T02:46:23.110Z,59.61
2017-08-31T02:47:03.562Z,59.9
2017-08-31T02:47:44.021Z,60.09
2017-08-31T02:48:24.478Z,59.9
2017-08-31T02:49:05.029Z,60.09
2017-08-31T02:49:45.499Z,60
2017-08-31T02:50:26.061Z,60.09
2017-08-31T02:51:06.520Z,59.9
2017-08-31T02:51:46.974Z,60.09
2017-08-31T02:52:27.428Z,60.09
2017-08-31T02:53:07.881Z,60.19
2017-08-31T02:53:48.327Z,60.19
2017-08-31T02:54:28.789Z,60.19
2017-08-31T02:55:09.221Z,59.9
2017-08-31T02:55:49.672Z,60.19
2017-08-31T02:56:30.125Z,60.19
2017-08-31T02:57:10.663Z,60.19
2017-08-31T02:57:51.117Z,60
2017-08-31T02:58:31.567Z,60.58
2017-08-31T02:59:12.025Z,60.19
2017-08-31T02:59:52.471Z,60.09
2017-08-31T03:00:32.977Z,60.28
2017-08-31T03:01:13.434Z,60.09
2017-08-31T03:01:53.894Z,60.19
2017-08-31T03:02:34.436Z,60.48
2017-08-31T03:03:14.879Z,60.09
2017-08-31T03:03:55.328Z,60.58
2017-08-31T03:04:35.778Z,60.19
2017-08-31T03:05:16.262Z,60.09
2017-08-31T03:05:56.708Z,60.19
2017-08-31T03:06:37.158Z,60.48
2017-08-31T03:07:17.612Z,60.19
2017-08-31T03:07:58.079Z,60.48
2017-08-31T03:08:38.531Z,60.48
2017-08-31T03:09:18.985Z,60.58
2017-08-31T03:09:59.443Z,60.58
2017-08-31T03:10:39.906Z,60.48
2017-08-31T03:11:20.361Z,60.09
2017-08-31T03:12:00.822Z,60.19
2017-08-31T03:12:41.270Z,60.09
2017-08-31T03:13:21.722Z,60.48
2017-08-31T03:14:02.180Z,60.09
2017-08-31T03:14:42.633Z,60.38
2017-08-31T03:15:23.086Z,60.48
2017-08-31T03:16:03.544Z,60
2017-08-31T03:16:44.001Z,60.19
2017-08-31T03:17:24.459Z,60.48
2017-08-31T03:18:04.916Z,60
2017-08-31T03:18:45.371Z,60.38
2017-08-31T03:19:25.822Z,60.48
2017-08-31T03:20:06.275Z,60.48
2017-08-31T03:20:46.721Z,60.38
2017-08-31T03:21:27.170Z,60.19
2017-08-31T03:22:07.632Z,60.58
2017-08-31T03:22:48.087Z,60.38
2017-08-31T03:23:28.538Z,60.38
2017-08-31T03:24:08.986Z,60.58
2017-08-31T03:24:49.444Z,60.38
2017-08-31T03:25:29.900Z,60.38
2017-08-31T03:26:10.358Z,60.38
2017-08-31T03:26:50.814Z,60.48
2017-08-31T03:27:31.271Z,60.48
2017-08-31T03:28:11.726Z,60.58
2017-08-31T03:28:52.183Z,60.48
2017-08-31T03:29:32.639Z,60.68
2017-08-31T03:30:13.090Z,60.38
2017-08-31T03:30:53.575Z,60.38
2017-08-31T03:31:34.104Z,60.58
2017-08-31T03:32:14.558Z,60.48
2017-08-31T03:32:55.022Z,60.48
2017-08-31T03:33:35.467Z,60.38
2017-08-31T03:34:15.928Z,60.38
2017-08-31T03:34:56.372Z,60.48
2017-08-31T03:35:36.823Z,60.38
2017-08-31T03:36:17.264Z,60.58
2017-08-31T03:36:57.725Z,60.38
2017-08-31T03:37:38.180Z,60.48
2017-08-31T03:38:18.632Z,60.28
2017-08-31T03:38:59.092Z,60.68
2017-08-31T03:40:51.634Z,60.38
2017-08-31T03:41:32.093Z,60.48
2017-08-31T03:42:12.565Z,60.38
2017-08-31T03:42:53.019Z,60.48
2017-08-31T03:43:33.482Z,60.48
2017-08-31T03:44:13.913Z,60.48
2017-08-31T03:44:54.362Z,60.48
2017-08-31T03:45:34.818Z,60.28
2017-08-31T03:46:15.276Z,60.58
2017-08-31T03:46:55.728Z,60.38
2017-08-31T03:47:36.200Z,60.38
2017-08-31T03:48:16.648Z,60.35
2017-08-31T03:48:57.107Z,60.38
2017-08-31T03:49:37.568Z,60.28
2017-08-31T03:50:18.024Z,60.38
2017-08-31T03:50:58.478Z,60.68
2017-08-31T03:51:38.930Z,60.28
2017-08-31T03:52:19.385Z,60.28
2017-08-31T03:52:59.842Z,60.25
2017-08-31T03:53:40.290Z,60.28
2017-08-31T03:54:20.827Z,60.28
2017-08-31T03:55:01.286Z,60.28
2017-08-31T03:55:41.745Z,60.19
2017-08-31T03:56:22.194Z,60.25
2017-08-31T03:57:02.639Z,60.28
2017-08-31T03:57:43.091Z,60.28
2017-08-31T03:58:23.548Z,60.38
2017-08-31T03:59:03.998Z,60.28
2017-08-31T03:59:44.455Z,60.25
2017-08-31T04:00:24.906Z,60.25
2017-08-31T04:01:05.356Z,60.35
2017-08-31T04:01:45.814Z,60.28
2017-08-31T04:02:26.270Z,60.16
2017-08-31T04:03:06.712Z,60.38
2017-08-31T04:03:47.159Z,60.38
2017-08-31T04:04:27.607Z,60.16
2017-08-31T04:05:08.056Z,60.19
2017-08-31T04:05:48.508Z,60.25
2017-08-31T04:06:28.958Z,60.38
2017-08-31T04:07:09.427Z,60.35
2017-08-31T04:07:49.868Z,60.28
2017-08-31T04:08:30.327Z,60.25
2017-08-31T04:09:10.784Z,60.19
2017-08-31T04:09:51.290Z,60.35
2017-08-31T04:10:31.726Z,60.38
2017-08-31T04:11:12.164Z,60.28
2017-08-31T04:11:52.600Z,60.25
2017-08-31T04:12:33.057Z,60.35
2017-08-31T04:13:13.541Z,60.28
2017-08-31T04:13:53.995Z,60.16
2017-08-31T04:14:34.477Z,60.38
2017-08-31T04:15:14.942Z,60.38
2017-08-31T04:15:55.391Z,60.19
2017-08-31T04:16:35.843Z,60.38
2017-08-31T04:17:16.290Z,60.16
2017-08-31T04:17:56.763Z,60.28
2017-08-31T04:18:37.217Z,60.38
2017-08-31T04:19:17.674Z,60.28
2017-08-31T04:19:58.127Z,60.16
2017-08-31T04:20:38.589Z,60.38
2017-08-31T04:21:19.058Z,60.38
2017-08-31T04:21:59.506Z,60.19
2017-08-31T04:22:39.963Z,60.38
2017-08-31T04:23:20.436Z,60.35
2017-08-31T04:24:00.893Z,60.38
2017-08-31T04:24:41.358Z,60.28
2017-08-31T04:25:21.798Z,60.25
2017-08-31T04:26:02.248Z,60.38
2017-08-31T04:26:42.702Z,60.35
2017-08-31T04:27:23.156Z,60.28
2017-08-31T04:28:03.615Z,60.25
2017-08-31T04:28:44.061Z,60.16
2017-08-31T04:29:24.501Z,60.35
2017-08-31T04:30:04.956Z,60.38
2017-08-31T04:30:45.414Z,60.35
2017-08-31T04:31:25.874Z,60.16
2017-08-31T04:32:06.325Z,60.19
2017-08-31T04:32:46.786Z,60.28
2017-08-31T04:33:27.248Z,60.35
2017-08-31T04:34:07.709Z,60.16
2017-08-31T04:34:48.169Z,60.38
2017-08-31T04:35:28.628Z,60.38
2017-08-31T04:36:09.086Z,60.16
2017-08-31T04:36:49.538Z,60.25
2017-08-31T04:37:30.014Z,60.35
2017-08-31T04:38:10.472Z,60.35
2017-08-31T04:38:50.921Z,60.16
2017-08-31T04:39:31.375Z,60.25
2017-08-31T04:40:11.825Z,60.35
2017-08-31T04:40:52.274Z,60.35
2017-08-31T04:41:32.720Z,60.25
2017-08-31T04:42:13.172Z,60.35
2017-08-31T04:42:53.631Z,60.35
2017-08-31T04:43:34.090Z,60.35
2017-08-31T04:44:14.537Z,60.06
2017-08-31T04:44:54.987Z,60.35
2017-08-31T04:45:35.424Z,60.45
2017-08-31T04:46:15.877Z,60.25
2017-08-31T04:46:56.333Z,60.35
2017-08-31T04:47:36.791Z,60.35
2017-08-31T04:48:17.240Z,60.06
2017-08-31T04:48:57.696Z,60.35
2017-08-31T04:49:38.155Z,59.97
2017-08-31T04:50:18.606Z,60.25
2017-08-31T04:50:59.059Z,60.35
2017-08-31T04:51:39.521Z,60.25
2017-08-31T04:52:19.977Z,60.35
2017-08-31T04:53:00.436Z,60.16
2017-08-31T04:53:40.899Z,60.45
2017-08-31T04:54:21.386Z,60.16
2017-08-31T04:55:01.842Z,60.25
2017-08-31T04:55:42.299Z,60.25
2017-08-31T04:56:22.751Z,60.25
2017-08-31T04:57:03.179Z,60.35
2017-08-31T04:57:43.636Z,60.45
2017-08-31T04:58:24.089Z,60.35
2017-08-31T04:59:04.854Z,60.35
2017-08-31T04:59:45.305Z,60.35
2017-08-31T05:00:25.746Z,60.25
2017-08-31T05:01:06.200Z,59.87
2017-08-31T05:01:46.651Z,60.35
2017-08-31T05:02:27.281Z,60.35
2017-08-31T05:03:07.733Z,60
2017-08-31T05:03:48.193Z,60.38
2017-08-31T05:04:28.649Z,60.38
2017-08-31T05:05:09.153Z,60.25
2017-08-31T05:05:49.611Z,60.38
2017-08-31T05:06:30.067Z,60.55
2017-08-31T05:07:10.598Z,59.97
2017-08-31T05:07:51.060Z,60.35
2017-08-31T05:08:31.508Z,60.55
2017-08-31T05:09:11.964Z,60.45
2017-08-31T05:09:52.438Z,60.45
2017-08-31T05:10:32.889Z,60.45
2017-08-31T05:11:13.343Z,60.38
2017-08-31T05:11:53.795Z,60.35
2017-08-31T05:12:34.240Z,60.35
2017-08-31T05:13:14.713Z,60.45
2017-08-31T05:13:55.174Z,60.55
2017-08-31T05:14:35.627Z,60.55
2017-08-31T05:15:16.075Z,60.45
2017-08-31T05:15:56.527Z,60.55
2017-08-31T05:16:36.984Z,60.55
2017-08-31T05:17:17.430Z,60.45
2017-08-31T05:17:57.888Z,60.45
2017-08-31T05:18:38.348Z,60.45
2017-08-31T05:19:18.805Z,60.35
2017-08-31T05:19:59.259Z,60.45
2017-08-31T05:20:39.710Z,60.45
2017-08-31T05:21:20.176Z,60.35
2017-08-31T05:22:00.641Z,60.55
2017-08-31T05:22:41.092Z,60.35
2017-08-31T05:23:21.550Z,60.45
2017-08-31T05:24:01.999Z,60.45
2017-08-31T05:24:42.460Z,60.45
2017-08-31T05:25:22.927Z,60.45
2017-08-31T05:26:03.375Z,60.35
2017-08-31T05:26:43.829Z,60.55
2017-08-31T05:27:24.285Z,60.55
2017-08-31T05:28:04.732Z,60.35
2017-08-31T05:28:45.191Z,60.45
2017-08-31T05:29:25.639Z,60.35
2017-08-31T05:30:06.089Z,60.45
2017-08-31T05:30:46.537Z,60.45
2017-08-31T05:31:26.993Z,59.87
2017-08-31T05:32:07.445Z,60.45
2017-08-31T05:32:47.897Z,60.35
2017-08-31T05:33:28.362Z,60.06
2017-08-31T05:34:08.887Z,60.45
2017-08-31T05:34:49.324Z,60.35
2017-08-31T05:35:29.773Z,60.06
2017-08-31T05:36:10.543Z,60.35
2017-08-31T05:36:50.962Z,60.45
2017-08-31T05:37:31.409Z,60.55
2017-08-31T05:38:12.171Z,60.35
2017-08-31T05:38:52.630Z,60.35
2017-08-31T05:39:33.074Z,60.55
2017-08-31T05:40:13.525Z,60.45
2017-08-31T05:40:54.004Z,60.25
2017-08-31T05:41:34.488Z,60.45
2017-08-31T05:42:14.946Z,60.35
2017-08-31T05:42:55.400Z,60.25
2017-08-31T05:43:35.865Z,60.35
2017-08-31T05:44:16.325Z,60.35
2017-08-31T05:44:56.783Z,60.25
2017-08-31T05:45:37.241Z,60.06
2017-08-31T05:46:17.699Z,60.45
2017-08-31T05:46:59.727Z,60.35
2017-08-31T05:47:40.200Z,60.35
2017-08-31T05:48:20.644Z,60.35
2017-08-31T05:49:01.110Z,60.25
2017-08-31T05:49:41.557Z,60.45
2017-08-31T05:50:22.042Z,60.35
2017-08-31T05:51:02.496Z,60.25
2017-08-31T05:51:42.971Z,60.55
2017-08-31T05:52:23.428Z,60.35
2017-08-31T05:53:03.885Z,60.25
2017-08-31T05:53:44.329Z,60.45
2017-08-31T05:54:24.782Z,60.55
2017-08-31T05:55:05.238Z,60.35
2017-08-31T05:55:45.690Z,60.45
2017-08-31T05:56:26.153Z,60.45
2017-08-31T05:57:06.612Z,60.45
2017-08-31T05:57:47.070Z,60.35
2017-08-31T05:58:27.547Z,60.55
2017-08-31T05:59:09.072Z,60.55
2017-08-31T05:59:49.533Z,60.55
2017-08-31T06:00:29.989Z,60.55
2017-08-31T06:01:10.428Z,60.35
2017-08-31T06:01:50.888Z,60.35
2017-08-31T06:02:31.342Z,60.25
2017-08-31T06:03:11.793Z,60.45
2017-08-31T06:03:52.248Z,60.06
2017-08-31T06:04:32.872Z,60.35
2017-08-31T06:05:13.322Z,60.35
2017-08-31T06:05:53.839Z,60.25
2017-08-31T06:06:34.926Z,60.25
2017-08-31T06:07:15.716Z,60.35
2017-08-31T06:07:56.160Z,60.25
2017-08-31T06:08:36.633Z,60.35
2017-08-31T06:10:54.586Z,60.35
2017-08-31T06:11:35.038Z,60.25
2017-08-31T06:12:15.518Z,60.35
2017-08-31T06:12:55.977Z,60.35
2017-08-31T06:13:36.462Z,59.97
2017-08-31T06:14:16.911Z,60.35
2017-08-31T06:14:57.362Z,60.25
2017-08-31T06:15:37.818Z,60.35
2017-08-31T06:16:18.269Z,60.35
2017-08-31T06:16:58.726Z,60.35
2017-08-31T06:17:39.358Z,60.25
2017-08-31T06:18:19.810Z,60.45
2017-08-31T06:19:00.244Z,60.35
2017-08-31T06:19:40.685Z,60.35
2017-08-31T06:20:21.085Z,60.45
2017-08-31T06:21:01.496Z,60.55
2017-08-31T06:21:41.917Z,60.25
2017-08-31T06:22:22.377Z,60.55
2017-08-31T06:23:02.836Z,60.35
2017-08-31T06:23:43.284Z,60.35
2017-08-31T06:24:23.742Z,60.25
2017-08-31T06:25:04.192Z,60.25
2017-08-31T06:25:44.645Z,60.25
2017-08-31T06:26:25.100Z,60.25
2017-08-31T06:27:05.608Z,60.25
2017-08-31T06:27:46.060Z,60.35
2017-08-31T06:28:26.516Z,60.25
2017-08-31T06:29:07.190Z,60.35
2017-08-31T06:30:55.698Z,60.35
2017-08-31T06:31:36.155Z,60.25
2017-08-31T06:32:16.614Z,60.25
2017-08-31T06:32:57.066Z,60.25
2017-08-31T06:33:37.522Z,60.55
2017-08-31T06:34:17.980Z,59.97
2017-08-31T06:34:58.391Z,60.45
2017-08-31T06:35:38.848Z,59.97
2017-08-31T06:36:19.298Z,60.55
2017-08-31T06:36:59.752Z,60.55
2017-08-31T06:37:40.205Z,60.35
2017-08-31T06:38:20.660Z,59.97
2017-08-31T06:39:01.110Z,60.35
2017-08-31T06:39:41.572Z,60.55
2017-08-31T06:40:22.025Z,60.55
2017-08-31T06:41:02.483Z,60.35
2017-08-31T06:41:42.947Z,60.55
2017-08-31T06:42:23.402Z,60.35
2017-08-31T06:43:03.851Z,60.35
2017-08-31T06:43:44.300Z,60.35
2017-08-31T06:44:24.755Z,60.45
2017-08-31T06:45:05.212Z,60.55
2017-08-31T06:45:45.676Z,60.45
2017-08-31T06:46:26.140Z,60.06
2017-08-31T06:47:06.692Z,60.35
2017-08-31T06:47:47.144Z,60.45
2017-08-31T06:48:27.600Z,60.55
2017-08-31T06:49:08.066Z,60.55
2017-08-31T06:49:48.541Z,60.35
2017-08-31T06:50:29.351Z,60.45
2017-08-31T06:51:09.809Z,60.45
2017-08-31T06:51:50.269Z,60.45
2017-08-31T06:52:30.803Z,60.45
2017-08-31T06:53:11.346Z,60.35
2017-08-31T06:53:51.778Z,60.45
2017-08-31T06:55:44.400Z,60.55
2017-08-31T06:56:24.914Z,60.55
2017-08-31T06:57:05.392Z,60.35
2017-08-31T06:57:45.843Z,60.25
2017-08-31T06:58:26.340Z,60.45
2017-08-31T07:00:39.349Z,60.45
2017-08-31T07:01:19.798Z,60.45
2017-08-31T07:02:00.353Z,60.45
2017-08-31T07:02:40.704Z,60.35
2017-08-31T07:03:21.144Z,60.45
2017-08-31T07:04:01.598Z,60.55
2017-08-31T07:04:42.050Z,60.55
2017-08-31T07:05:22.505Z,60.55
2017-08-31T07:07:10.034Z,60.35
2017-08-31T07:07:50.492Z,60.45
2017-08-31T07:08:30.948Z,60.35
2017-08-31T07:09:11.404Z,60.64
2017-08-31T07:09:51.864Z,60.35
2017-08-31T07:10:32.302Z,60.45
2017-08-31T07:11:12.745Z,60.55
2017-08-31T07:11:53.198Z,60.64
2017-08-31T07:12:33.649Z,60.35
2017-08-31T07:13:14.110Z,60.55
2017-08-31T07:13:54.564Z,60.45
2017-08-31T07:14:35.019Z,60.35
2017-08-31T07:15:15.471Z,60.45
2017-08-31T07:15:55.924Z,60.45
2017-08-31T07:16:36.371Z,60.35
2017-08-31T07:17:16.861Z,60.55
2017-08-31T07:17:57.309Z,60.45
2017-08-31T07:18:37.855Z,60.35
2017-08-31T07:19:18.514Z,60.35
2017-08-31T07:19:58.975Z,60.35
2017-08-31T07:20:39.434Z,60.64
2017-08-31T07:21:19.894Z,60.64
2017-08-31T07:22:00.343Z,60.45
2017-08-31T07:22:40.869Z,60.45
2017-08-31T07:23:21.306Z,60.55
2017-08-31T07:24:01.760Z,60.35
2017-08-31T07:24:42.208Z,60.45
2017-08-31T07:25:22.668Z,60.74
2017-08-31T07:26:03.118Z,60.64
2017-08-31T07:26:43.573Z,60.74
2017-08-31T07:27:24.028Z,60.94
2017-08-31T07:28:04.478Z,60.74
2017-08-31T07:28:44.930Z,60.94
2017-08-31T07:29:25.392Z,60.94
2017-08-31T07:30:05.842Z,60.84
2017-08-31T07:30:46.298Z,60.74
2017-08-31T07:31:26.740Z,60.94
2017-08-31T07:32:07.186Z,60.94
2017-08-31T07:32:47.649Z,61.04
2017-08-31T07:33:28.097Z,60.94
2017-08-31T07:34:08.548Z,60.84
2017-08-31T07:34:49.004Z,60.74
2017-08-31T07:35:29.442Z,60.94
2017-08-31T07:36:09.905Z,60.94
2017-08-31T07:36:50.348Z,60.45
2017-08-31T07:37:30.802Z,60.84
2017-08-31T07:38:11.366Z,60.94
2017-08-31T07:38:51.820Z,60.94
2017-08-31T07:39:32.270Z,60.74
2017-08-31T07:40:12.729Z,60.74
2017-08-31T07:40:53.186Z,60.84
2017-08-31T07:41:33.639Z,60.74
2017-08-31T07:42:14.084Z,60.94
2017-08-31T07:42:54.536Z,61.04
2017-08-31T07:43:34.992Z,61.04
2017-08-31T07:44:15.456Z,61.04
2017-08-31T07:44:55.910Z,60.94
2017-08-31T07:45:36.358Z,60.94
2017-08-31T07:46:16.814Z,61.04
2017-08-31T07:46:57.268Z,60.94
2017-08-31T07:47:37.729Z,60.84
2017-08-31T07:48:18.182Z,60.94
2017-08-31T07:48:58.643Z,60.84
2017-08-31T07:49:39.090Z,60.84
2017-08-31T07:50:19.544Z,61.04
2017-08-31T07:51:00.006Z,60.84
2017-08-31T07:51:40.461Z,60.94
2017-08-31T07:52:20.906Z,60.94
2017-08-31T07:53:01.363Z,60.64
2017-08-31T07:53:41.900Z,60.91
2017-08-31T07:54:22.365Z,60.74
2017-08-31T07:55:02.822Z,60.71
2017-08-31T07:55:43.276Z,60.74
2017-08-31T07:56:23.726Z,61.04
2017-08-31T07:57:04.193Z,60.94
2017-08-31T07:57:44.650Z,60.84
2017-08-31T07:58:25.104Z,60.94
2017-08-31T07:59:05.562Z,60.74
2017-08-31T07:59:46.014Z,60.55
2017-08-31T08:00:26.480Z,61.04
2017-08-31T08:01:06.940Z,60.74
2017-08-31T08:01:47.392Z,60.84
2017-08-31T08:02:27.887Z,60.84
2017-08-31T08:03:08.330Z,60.55
2017-08-31T08:03:48.786Z,61.04
2017-08-31T08:04:29.372Z,60.74
2017-08-31T08:05:09.819Z,60.74
2017-08-31T08:05:50.276Z,60.55
2017-08-31T08:06:30.741Z,60.74
2017-08-31T08:07:11.196Z,60.84
2017-08-31T08:07:51.651Z,60.84
2017-08-31T08:08:32.105Z,60.64
2017-08-31T08:09:12.619Z,60.74
2017-08-31T08:09:53.059Z,60.94
2017-08-31T08:10:33.514Z,60.94
2017-08-31T08:11:13.972Z,60.64
2017-08-31T08:11:54.429Z,60.84
2017-08-31T08:12:34.882Z,60.64
2017-08-31T08:13:15.324Z,60.84
2017-08-31T08:13:55.787Z,60.94
2017-08-31T08:14:36.240Z,60.94
2017-08-31T08:15:16.685Z,60.94
2017-08-31T08:15:57.146Z,60.64
2017-08-31T08:16:37.594Z,60.94
2017-08-31T08:17:18.046Z,60.94
2017-08-31T08:17:58.501Z,60.84
2017-08-31T08:18:38.953Z,60.84
2017-08-31T08:19:19.405Z,60.64
2017-08-31T08:19:59.863Z,60.94
2017-08-31T08:20:40.316Z,60.84
2017-08-31T08:21:20.779Z,60.84
2017-08-31T08:22:01.241Z,60.84
2017-08-31T08:22:41.692Z,60.74
2017-08-31T08:23:22.145Z,60.64
2017-08-31T08:24:02.599Z,60.35
2017-08-31T08:24:43.138Z,60.55
2017-08-31T08:25:23.588Z,60.45
2017-08-31T08:26:04.046Z,60.55
2017-08-31T08:26:44.497Z,60.35
2017-08-31T08:27:24.958Z,60.45
2017-08-31T08:28:05.408Z,60.25
2017-08-31T08:28:45.867Z,60.48
2017-08-31T08:29:26.310Z,60.68
2017-08-31T08:30:06.759Z,60.48
2017-08-31T08:30:47.231Z,60.09
2017-08-31T08:31:27.679Z,59.8
2017-08-31T08:32:08.137Z,59.8
2017-08-31T08:32:48.596Z,60
2017-08-31T08:33:29.057Z,59.9
2017-08-31T08:34:09.512Z,60.28
2017-08-31T08:34:49.969Z,59.8
2017-08-31T08:35:30.429Z,59.7
2017-08-31T08:36:10.878Z,59.8
2017-08-31T08:36:51.331Z,60
2017-08-31T08:37:31.783Z,59.8
2017-08-31T08:38:12.240Z,60.09
2017-08-31T08:38:52.693Z,60
2017-08-31T08:39:33.148Z,60.09
2017-08-31T08:40:13.607Z,60.19
2017-08-31T08:40:54.069Z,60.19
2017-08-31T08:41:34.507Z,59.51
2017-08-31T08:42:14.962Z,60.28
2017-08-31T08:42:55.417Z,60.38
2017-08-31T08:43:35.879Z,60.09
2017-08-31T08:44:16.335Z,60.38
2017-08-31T08:44:56.792Z,60.28
2017-08-31T08:45:37.243Z,60.38
2017-08-31T08:46:17.702Z,60.38
2017-08-31T08:46:58.172Z,60.28
2017-08-31T08:47:38.603Z,60.19
2017-08-31T08:48:19.064Z,60
2017-08-31T08:48:59.518Z,60
2017-08-31T08:49:39.961Z,60
2017-08-31T08:50:20.417Z,60
2017-08-31T08:51:00.905Z,60
2017-08-31T08:51:41.331Z,60.19
2017-08-31T08:52:21.789Z,60.48
2017-08-31T08:53:02.309Z,60.28
2017-08-31T08:53:42.765Z,60.19
2017-08-31T08:54:23.230Z,60
2017-08-31T08:55:03.741Z,60.28